Time;durP1;ratioP1;P1;durP2;ratioP2;P2;SDS_P1;SDS_P2;PMS_P1;PMS_P2;Temp;Humidity;BMP_temperature;BMP_pressure;BME280_temperature;BME280_humidity;BME280_pressure;Samples;Min_cycle;Max_cycle;Signal;HPM_P1;HPM_P2
2022/03/28 00:02:42;;;;;;;14.50;6.27;;;7.00;72.70;;;;;;5050885;28;20641;-65
2022/03/28 00:05:31;;;;;;;13.00;6.30;;;7.00;72.70;;;;;;5051071;28;20231;-65
2022/03/28 00:08:20;;;;;;;12.30;5.87;;;7.00;72.90;;;;;;5043977;28;20232;-66
2022/03/28 00:11:13;;;;;;;14.37;6.23;;;7.00;72.90;;;;;;5049266;28;20762;-65
2022/03/28 00:14:02;;;;;;;12.37;5.20;;;7.00;73.10;;;;;;5036138;28;20251;-65
2022/03/28 00:16:50;;;;;;;13.13;6.47;;;7.00;73.20;;;;;;5050840;28;20224;-67
2022/03/28 00:19:39;;;;;;;14.67;6.43;;;7.00;73.30;;;;;;5033434;28;20231;-66
2022/03/28 00:22:29;;;;;;;13.20;6.10;;;7.00;73.20;;;;;;5040007;28;20235;-66
2022/03/28 00:25:17;;;;;;;13.10;6.27;;;7.00;73.20;;;;;;5048900;28;20221;-66
2022/03/28 00:28:08;;;;;;;13.30;5.80;;;7.00;73.50;;;;;;5051194;28;20294;-65
2022/03/28 00:31:01;;;;;;;14.87;5.37;;;7.00;73.30;;;;;;5035666;28;20359;-65
2022/03/28 00:33:50;;;;;;;10.27;5.77;;;7.00;73.30;;;;;;5035655;28;20220;-67
2022/03/28 00:36:38;;;;;;;13.47;5.97;;;7.00;73.50;;;;;;5054143;28;20228;-68
2022/03/28 00:39:27;;;;;;;16.03;5.87;;;7.00;73.50;;;;;;5050710;28;20323;-68
2022/03/28 00:42:16;;;;;;;16.43;6.30;;;7.00;73.50;;;;;;5048618;28;20698;-67
2022/03/28 00:45:08;;;;;;;12.77;6.20;;;7.00;73.80;;;;;;5035000;28;20599;-68
2022/03/28 00:48:00;;;;;;;14.90;6.03;;;7.00;74.80;;;;;;5041965;28;20260;-67
2022/03/28 00:50:49;;;;;;;15.43;6.07;;;6.90;74.20;;;;;;5041005;28;20256;-68
2022/03/28 00:53:38;;;;;;;12.23;5.90;;;6.90;74.50;;;;;;5055468;28;20228;-67
2022/03/28 00:56:26;;;;;;;16.70;5.80;;;6.90;74.30;;;;;;5053381;28;20239;-65
2022/03/28 00:59:16;;;;;;;12.47;6.00;;;7.00;74.50;;;;;;5042474;28;20855;-66
2022/03/28 01:02:09;;;;;;;12.60;5.83;;;6.90;74.70;;;;;;5043538;28;20225;-67
2022/03/28 01:04:58;;;;;;;14.13;5.90;;;6.80;75.70;;;;;;5056075;28;20231;-67
2022/03/28 01:07:47;;;;;;;12.00;6.30;;;6.80;74.80;;;;;;5036055;28;20213;-68
2022/03/28 01:10:37;;;;;;;14.00;5.60;;;6.90;74.40;;;;;;5058069;28;20223;-68
2022/03/28 01:13:27;;;;;;;13.67;5.50;;;7.00;74.40;;;;;;5050817;28;20228;-68
2022/03/28 01:16:16;;;;;;;10.77;4.80;;;7.00;74.00;;;;;;5050997;28;20298;-70
2022/03/28 01:19:05;;;;;;;14.10;5.50;;;7.00;74.10;;;;;;5055642;28;20243;-69
2022/03/28 01:21:55;;;;;;;9.40;5.33;;;7.00;73.90;;;;;;5052769;28;20216;-68
2022/03/28 01:24:44;;;;;;;9.20;4.60;;;7.00;74.10;;;;;;5035840;28;20212;-68
2022/03/28 01:27:36;;;;;;;12.07;4.80;;;7.00;73.70;;;;;;5053960;28;20617;-69
2022/03/28 01:30:24;;;;;;;10.87;5.10;;;7.00;73.50;;;;;;5049619;28;20687;-69
2022/03/28 01:33:13;;;;;;;10.37;4.57;;;7.10;73.20;;;;;;5042009;28;20339;-68
2022/03/28 01:36:02;;;;;;;10.83;4.70;;;7.10;72.90;;;;;;5053391;28;20319;-68
2022/03/28 01:38:56;;;;;;;9.20;4.30;;;7.20;72.30;;;;;;5035170;28;20252;-67
2022/03/28 01:41:47;;;;;;;10.93;4.67;;;7.30;72.10;;;;;;5037116;28;20254;-67
2022/03/28 01:44:36;;;;;;;9.73;4.10;;;7.40;71.40;;;;;;5052719;28;20224;-67
2022/03/28 01:47:26;;;;;;;11.80;4.73;;;7.40;71.20;;;;;;5052053;28;20232;-65
2022/03/28 01:50:16;;;;;;;9.50;4.10;;;7.40;71.20;;;;;;5053834;28;20690;-67
2022/03/28 01:53:05;;;;;;;12.73;4.43;;;7.50;71.50;;;;;;5053440;28;20217;-68
2022/03/28 01:55:55;;;;;;;11.83;4.07;;;7.50;70.90;;;;;;5054523;28;20213;-67
2022/03/28 01:58:43;;;;;;;8.50;3.90;;;7.60;71.10;;;;;;5042523;28;20217;-66
2022/03/28 02:01:34;;;;;;;8.10;4.27;;;7.70;70.20;;;;;;5041315;28;20726;-65
2022/03/28 02:04:22;;;;;;;11.30;4.20;;;7.80;69.50;;;;;;5054327;28;20598;-65
2022/03/28 02:07:11;;;;;;;12.20;4.30;;;7.90;69.30;;;;;;5041538;28;20228;-67
2022/03/28 02:10:00;;;;;;;9.90;4.40;;;8.00;68.70;;;;;;5055188;28;20226;-67
2022/03/28 02:12:51;;;;;;;9.00;4.30;;;8.10;68.80;;;;;;5050641;28;20229;-67
2022/03/28 02:15:40;;;;;;;8.63;4.50;;;8.10;68.80;;;;;;5032995;28;20220;-68
2022/03/28 02:18:28;;;;;;;12.53;5.00;;;8.10;68.60;;;;;;5052599;28;20222;-67
2022/03/28 02:21:17;;;;;;;14.30;4.70;;;8.10;68.50;;;;;;5052872;28;20571;-67
2022/03/28 02:24:07;;;;;;;10.20;4.80;;;8.20;68.60;;;;;;5053042;28;20331;-68
2022/03/28 02:26:56;;;;;;;8.47;4.40;;;8.20;68.80;;;;;;5053293;28;20225;-68
2022/03/28 02:29:46;;;;;;;9.77;4.00;;;8.20;68.60;;;;;;5054298;28;20275;-67
2022/03/28 02:32:35;;;;;;;8.37;4.57;;;8.20;68.80;;;;;;5054902;28;20220;-66
2022/03/28 02:35:25;;;;;;;15.20;5.23;;;8.20;69.00;;;;;;5052850;28;20241;-67
2022/03/28 02:38:13;;;;;;;9.23;4.67;;;8.20;69.20;;;;;;5035382;28;20293;-66
2022/03/28 02:41:02;;;;;;;8.60;4.80;;;8.20;69.40;;;;;;5051644;28;20259;-67
2022/03/28 02:43:52;;;;;;;10.00;4.60;;;8.20;69.80;;;;;;5051442;28;20220;-68
2022/03/28 02:46:42;;;;;;;8.60;4.60;;;8.10;70.10;;;;;;5047333;28;20236;-67
2022/03/28 02:49:30;;;;;;;13.10;5.70;;;8.20;70.20;;;;;;5048473;28;20235;-66
2022/03/28 02:52:19;;;;;;;11.90;5.40;;;8.10;70.10;;;;;;5041925;28;20229;-65
2022/03/28 02:55:09;;;;;;;14.37;5.80;;;8.10;70.50;;;;;;5043765;28;20212;-66
2022/03/28 02:57:57;;;;;;;11.77;5.53;;;8.10;70.70;;;;;;5049371;28;20584;-66
2022/03/28 03:00:46;;;;;;;15.20;5.73;;;8.10;71.20;;;;;;5050202;28;20888;-65
2022/03/28 03:03:36;;;;;;;14.93;5.37;;;8.10;71.40;;;;;;5038111;28;20221;-66
2022/03/28 03:06:25;;;;;;;15.23;5.53;;;8.10;71.40;;;;;;5052274;28;20829;-66
2022/03/28 03:09:13;;;;;;;12.20;6.07;;;8.10;71.70;;;;;;5037898;28;20529;-67
2022/03/28 03:12:02;;;;;;;12.97;5.60;;;8.10;71.80;;;;;;5039717;28;20223;-67
2022/03/28 03:14:51;;;;;;;9.40;5.43;;;8.10;71.90;;;;;;5052998;28;20229;-67
2022/03/28 03:17:40;;;;;;;11.67;6.10;;;8.10;72.10;;;;;;5040538;28;20246;-69
2022/03/28 03:20:30;;;;;;;13.27;6.07;;;8.00;72.20;;;;;;5051150;28;20327;-67
2022/03/28 03:23:18;;;;;;;12.97;5.87;;;8.00;72.40;;;;;;5052570;28;20225;-68
2022/03/28 03:26:10;;;;;;;10.90;5.50;;;8.00;72.50;;;;;;5051178;28;20221;-67
2022/03/28 03:28:59;;;;;;;14.17;6.63;;;8.00;72.70;;;;;;5054462;28;20216;-66
2022/03/28 03:31:48;;;;;;;13.20;5.80;;;8.00;72.80;;;;;;5050504;28;20244;-66
2022/03/28 03:34:37;;;;;;;10.40;6.07;;;8.00;73.20;;;;;;5037919;28;20220;-67
2022/03/28 03:37:29;;;;;;;13.50;6.10;;;8.00;73.20;;;;;;5037488;28;20227;-66
2022/03/28 03:40:18;;;;;;;13.87;6.60;;;8.00;73.50;;;;;;5049687;28;20229;-66
2022/03/28 03:43:10;;;;;;;13.87;6.13;;;7.90;73.70;;;;;;5033577;28;20222;-67
2022/03/28 03:45:59;;;;;;;14.03;6.80;;;7.90;74.10;;;;;;5050934;28;20218;-66
2022/03/28 03:48:48;;;;;;;12.83;6.53;;;7.90;74.20;;;;;;5051768;28;20228;-66
2022/03/28 03:51:36;;;;;;;14.07;6.27;;;7.90;74.30;;;;;;5050927;28;20268;-64
2022/03/28 03:54:28;;;;;;;12.67;6.50;;;7.90;74.60;;;;;;5046544;28;20314;-67
2022/03/28 03:57:16;;;;;;;9.70;5.83;;;7.80;75.10;;;;;;5035302;28;20277;-66
2022/03/28 04:00:08;;;;;;;13.70;6.60;;;7.80;75.50;;;;;;5046797;28;20228;-67
2022/03/28 04:03:00;;;;;;;13.13;6.53;;;7.80;75.60;;;;;;5046253;28;20316;-67
2022/03/28 04:05:49;;;;;;;14.03;6.70;;;7.80;75.80;;;;;;5040852;28;20224;-68
2022/03/28 04:08:38;;;;;;;13.10;6.70;;;7.80;76.00;;;;;;5035880;28;20243;-67
2022/03/28 04:11:28;;;;;;;13.87;6.60;;;7.80;77.00;;;;;;5036861;28;20235;-66
2022/03/28 04:14:16;;;;;;;15.03;6.47;;;7.70;76.80;;;;;;5038596;28;20221;-65
2022/03/28 04:17:05;;;;;;;17.90;7.27;;;7.70;76.90;;;;;;5049275;28;20240;-66
2022/03/28 04:19:58;;;;;;;13.70;6.60;;;7.70;77.20;;;;;;5039820;28;20414;-67
2022/03/28 04:22:47;;;;;;;14.77;6.87;;;7.70;77.50;;;;;;5040677;28;20235;-70
2022/03/28 04:25:35;;;;;;;15.53;6.33;;;7.70;77.70;;;;;;5041141;28;20216;-68
2022/03/28 04:28:25;;;;;;;13.27;7.07;;;7.70;78.30;;;;;;5056279;28;20232;-67
2022/03/28 04:31:15;;;;;;;13.47;6.57;;;7.70;78.60;;;;;;5060209;28;21020;-67
2022/03/28 04:34:04;;;;;;;14.30;6.90;;;7.70;78.80;;;;;;5046410;28;20234;-67
2022/03/28 04:36:53;;;;;;;17.17;7.30;;;7.70;79.30;;;;;;5050821;28;20235;-67
2022/03/28 04:39:41;;;;;;;14.43;7.10;;;7.70;79.70;;;;;;5038390;28;20225;-66
2022/03/28 04:42:30;;;;;;;16.07;7.27;;;7.70;79.70;;;;;;5053287;28;20732;-66
2022/03/28 04:45:20;;;;;;;13.77;7.47;;;7.80;80.00;;;;;;5040336;28;20319;-66
2022/03/28 04:48:09;;;;;;;16.30;7.90;;;7.80;80.40;;;;;;5052909;28;20228;-65
2022/03/28 04:50:58;;;;;;;13.90;7.20;;;7.80;80.90;;;;;;5055040;28;21051;-66
2022/03/28 04:53:46;;;;;;;16.07;6.80;;;7.80;81.30;;;;;;5054778;28;20229;-67
2022/03/28 04:56:35;;;;;;;14.67;6.87;;;7.80;81.70;;;;;;5048991;28;20367;-66
2022/03/28 04:59:24;;;;;;;14.13;6.80;;;7.80;82.00;;;;;;5041897;28;20332;-67
2022/03/28 05:02:14;;;;;;;13.87;7.13;;;7.80;82.30;;;;;;5040962;28;20227;-66
2022/03/28 05:05:04;;;;;;;14.37;7.10;;;7.80;82.60;;;;;;5039769;28;20217;-69
2022/03/28 05:07:52;;;;;;;13.50;7.33;;;7.90;83.00;;;;;;5052654;28;20740;-67
2022/03/28 05:10:43;;;;;;;17.17;7.83;;;7.90;83.10;;;;;;5059493;28;20228;-67
2022/03/28 05:13:35;;;;;;;16.87;7.17;;;7.90;83.50;;;;;;5052050;28;20227;-67
2022/03/28 05:16:24;;;;;;;18.80;7.83;;;8.00;83.50;;;;;;5050320;28;25287;-68
2022/03/28 05:19:14;;;;;;;16.60;7.47;;;8.00;83.70;;;;;;5052617;28;20224;-68
2022/03/28 05:22:03;;;;;;;14.10;7.43;;;8.00;83.80;;;;;;5053163;28;21003;-67
2022/03/28 05:24:54;;;;;;;14.43;7.63;;;8.10;84.00;;;;;;5039647;28;20331;-67
2022/03/28 05:27:43;;;;;;;14.83;7.90;;;8.20;84.20;;;;;;5058611;28;20672;-67
2022/03/28 05:30:32;;;;;;;16.87;8.90;;;8.30;84.10;;;;;;5054150;28;20229;-69
2022/03/28 05:33:21;;;;;;;15.57;7.63;;;8.30;84.00;;;;;;5042001;28;20797;-71
2022/03/28 05:36:11;;;;;;;14.90;7.63;;;8.40;84.00;;;;;;5052881;28;20278;-70
2022/03/28 05:39:00;;;;;;;19.17;7.37;;;8.40;84.10;;;;;;5051157;28;20627;-70
2022/03/28 05:41:49;;;;;;;14.33;7.17;;;8.50;84.10;;;;;;5054347;28;20219;-70
2022/03/28 05:44:40;;;;;;;15.13;8.00;;;8.50;83.90;;;;;;5039567;28;20654;-69
2022/03/28 05:47:29;;;;;;;15.97;7.60;;;8.50;84.50;;;;;;5036641;28;20231;-68
2022/03/28 05:50:17;;;;;;;20.00;7.97;;;8.60;84.90;;;;;;5033215;28;20228;-68
2022/03/28 05:53:09;;;;;;;17.73;8.40;;;8.60;84.90;;;;;;5053252;28;20871;-68
2022/03/28 05:55:58;;;;;;;15.90;7.83;;;8.70;85.20;;;;;;5051428;28;20686;-68
2022/03/28 05:58:46;;;;;;;20.80;8.77;;;8.80;85.60;;;;;;5038320;28;20234;-68
2022/03/28 06:01:36;;;;;;;22.33;8.07;;;8.80;86.00;;;;;;5049234;28;20248;-67
2022/03/28 06:04:25;;;;;;;15.57;8.13;;;8.80;86.40;;;;;;5051564;28;20231;-69
2022/03/28 06:07:14;;;;;;;19.33;8.90;;;8.90;86.60;;;;;;5046528;28;20282;-68
2022/03/28 06:10:05;;;;;;;18.23;8.17;;;8.90;86.60;;;;;;5047118;28;20364;-68
2022/03/28 06:12:54;;;;;;;18.00;9.27;;;9.00;87.50;;;;;;5052811;28;20218;-67
2022/03/28 06:15:43;;;;;;;26.23;13.83;;;9.10;87.50;;;;;;5034337;28;20513;-65
2022/03/28 06:18:32;;;;;;;14.30;8.17;;;9.20;88.20;;;;;;5040345;28;20718;-67
2022/03/28 06:21:21;;;;;;;19.87;8.93;;;9.20;88.90;;;;;;5052834;28;20233;-69
2022/03/28 06:24:11;;;;;;;20.47;8.80;;;9.20;89.60;;;;;;5050381;28;20823;-70
2022/03/28 06:27:03;;;;;;;17.27;8.43;;;9.30;89.80;;;;;;5037366;28;20966;-71
2022/03/28 06:29:52;;;;;;;20.93;9.30;;;9.40;90.00;;;;;;5050762;28;20239;-75
2022/03/28 06:32:41;;;;;;;17.57;8.87;;;9.50;90.30;;;;;;5054196;28;20239;-67
2022/03/28 06:35:30;;;;;;;17.93;8.53;;;9.60;90.50;;;;;;5050209;28;20251;-68
2022/03/28 06:38:19;;;;;;;23.17;9.10;;;9.50;91.10;;;;;;5041124;28;20228;-67
2022/03/28 06:41:09;;;;;;;23.23;9.70;;;9.60;91.10;;;;;;5057469;28;20323;-68
2022/03/28 06:43:59;;;;;;;23.80;9.70;;;9.70;91.50;;;;;;5054258;28;21526;-67
2022/03/28 06:46:47;;;;;;;19.30;9.70;;;9.80;91.30;;;;;;5055753;28;20238;-68
2022/03/28 06:49:36;;;;;;;18.80;9.23;;;9.80;92.20;;;;;;5042107;28;20543;-68
2022/03/28 06:52:25;;;;;;;21.40;9.07;;;9.80;92.30;;;;;;5041536;28;20228;-69
2022/03/28 06:55:14;;;;;;;17.97;8.87;;;9.90;92.80;;;;;;5057536;28;20220;-68
2022/03/28 06:58:03;;;;;;;22.87;12.10;;;10.00;93.30;;;;;;5042905;28;20227;-69
2022/03/28 07:00:55;;;;;;;27.13;9.77;;;10.00;93.50;;;;;;5047174;28;20240;-70
2022/03/28 07:03:44;;;;;;;29.00;10.37;;;10.00;93.80;;;;;;5043342;28;20231;-72
2022/03/28 07:06:32;;;;;;;26.30;9.65;;;10.10;94.10;;;;;;5049515;28;20671;-70
2022/03/28 07:09:21;;;;;;;21.63;10.23;;;10.20;94.30;;;;;;5039802;28;20224;-66
2022/03/28 07:12:10;;;;;;;54.60;11.65;;;10.30;94.60;;;;;;5044898;28;20312;-69
2022/03/28 07:14:59;;;;;;;23.88;9.20;;;10.40;94.10;;;;;;5051401;28;20224;-67
2022/03/28 07:17:54;;;;;;;26.45;9.82;;;10.50;94.40;;;;;;5051550;28;20229;-69
2022/03/28 07:20:43;;;;;;;44.92;12.48;;;10.60;94.50;;;;;;5041955;28;20231;-73
2022/03/28 07:27:14;;;;;;;27.45;9.65;;;10.70;94.60;;;;;;5026205;27;20540;-68
2022/03/28 07:30:03;;;;;;;27.83;10.32;;;10.80;95.20;;;;;;5017093;28;20229;-65
2022/03/28 13:18:21;;;;;;;15.75;3.80;;;17.40;62.50;;;;;;5038646;27;20982;-74
2022/03/28 13:21:17;;;;;;;27.05;4.90;;;17.30;63.40;;;;;;5024832;28;20221;-74
2022/03/28 13:24:09;;;;;;;17.45;3.40;;;17.40;63.00;;;;;;5012516;28;20699;-73
2022/03/28 13:30:18;;;;;;;18.45;3.72;;;17.50;63.00;;;;;;5000157;28;20217;-72
2022/03/28 13:33:07;;;;;;;23.33;3.50;;;17.40;63.10;;;;;;5008477;28;20884;-78
2022/03/28 13:35:58;;;;;;;19.35;3.63;;;17.50;63.30;;;;;;5005962;28;20229;-72
2022/03/28 13:38:50;;;;;;;17.60;3.25;;;17.50;63.50;;;;;;5003999;28;20731;-74
2022/03/28 13:41:39;;;;;;;12.38;3.42;;;17.50;63.40;;;;;;5001208;28;20998;-76
2022/03/28 13:44:28;;;;;;;18.58;3.67;;;17.50;62.50;;;;;;5010482;28;20677;-79
2022/03/28 13:47:17;;;;;;;17.42;2.97;;;17.50;60.80;;;;;;5006238;28;20230;-75
2022/03/28 13:50:06;;;;;;;13.82;2.83;;;17.40;60.20;;;;;;4999559;28;20230;-74
2022/03/28 13:52:57;;;;;;;12.13;2.80;;;17.50;61.00;;;;;;5000445;28;20218;-69
2022/03/28 13:55:46;;;;;;;16.70;3.13;;;17.50;60.70;;;;;;4997303;28;20233;-70
2022/03/28 13:58:34;;;;;;;17.95;3.05;;;17.50;60.10;;;;;;5001037;28;20260;-67
2022/03/28 14:01:27;;;;;;;11.32;2.60;;;17.60;58.90;;;;;;5020506;28;20233;-69
2022/03/28 14:04:17;;;;;;;12.45;2.55;;;17.50;58.40;;;;;;5006968;28;20237;-69
2022/03/28 14:07:10;;;;;;;10.02;2.63;;;17.50;58.00;;;;;;5021250;28;21118;-69
2022/03/28 14:10:00;;;;;;;19.83;3.13;;;17.50;58.30;;;;;;5019468;28;20228;-69
2022/03/28 14:12:49;;;;;;;14.05;3.10;;;17.40;59.40;;;;;;5019939;28;20228;-68
2022/03/28 14:15:38;;;;;;;15.07;3.20;;;17.50;59.00;;;;;;5019730;28;20594;-71
2022/03/28 14:18:27;;;;;;;11.40;2.90;;;17.50;59.30;;;;;;5016980;28;20225;-71
2022/03/28 14:21:16;;;;;;;13.77;2.70;;;17.50;59.90;;;;;;5017896;28;20236;-68
2022/03/28 14:24:06;;;;;;;11.90;3.05;;;17.40;59.50;;;;;;5024886;28;20300;-70
2022/03/28 14:26:56;;;;;;;10.93;2.85;;;17.40;58.80;;;;;;5035903;28;20214;-69
2022/03/28 14:29:46;;;;;;;13.75;3.13;;;17.40;58.40;;;;;;5013982;28;20317;-73
2022/03/28 14:32:35;;;;;;;12.48;2.90;;;17.40;58.10;;;;;;5013236;28;20648;-73
2022/03/28 14:35:28;;;;;;;11.98;2.92;;;17.40;58.10;;;;;;5018154;28;20234;-67
2022/03/28 14:38:17;;;;;;;12.35;2.95;;;17.40;58.10;;;;;;5005153;28;20222;-65
2022/03/28 14:41:05;;;;;;;14.68;3.03;;;17.40;58.10;;;;;;5006168;28;20248;-66
2022/03/28 14:43:56;;;;;;;11.73;2.85;;;17.40;58.10;;;;;;5013792;28;20451;-73
2022/03/28 14:49:54;;;;;;;13.20;2.72;;;17.50;57.00;;;;;;5006254;28;20713;-67
2022/03/28 14:52:44;;;;;;;12.52;2.67;;;17.40;56.70;;;;;;5008795;28;20785;-69
2022/03/28 14:55:32;;;;;;;16.17;2.70;;;17.40;56.50;;;;;;5006340;28;20232;-68
2022/03/28 14:58:21;;;;;;;13.98;2.75;;;17.40;56.70;;;;;;5012078;28;20229;-67
2022/03/28 15:01:31;;;;;;;9.82;2.75;;;17.40;57.00;;;;;;5007453;28;20237;-68
2022/03/28 15:04:24;;;;;;;15.10;3.03;;;17.30;57.40;;;;;;5007318;28;20245;-68
2022/03/28 15:07:13;;;;;;;10.00;3.22;;;17.30;57.40;;;;;;5011665;28;20218;-70
2022/03/28 15:10:02;;;;;;;16.48;3.33;;;17.30;57.70;;;;;;5008256;28;21045;-68
2022/03/28 15:12:50;;;;;;;10.32;3.33;;;17.30;57.80;;;;;;5009929;28;20226;-68
2022/03/28 15:15:39;;;;;;;10.07;3.17;;;17.20;57.80;;;;;;5005273;28;20229;-68
2022/03/28 15:18:30;;;;;;;11.95;3.08;;;17.30;57.80;;;;;;5005957;28;20230;-67
2022/03/28 15:21:19;;;;;;;9.52;2.90;;;17.20;58.30;;;;;;5004257;28;20285;-68
2022/03/28 15:24:09;;;;;;;11.70;2.75;;;17.20;58.10;;;;;;5005285;28;20592;-69
2022/03/28 15:26:57;;;;;;;14.27;4.50;;;17.20;58.10;;;;;;5007650;28;20268;-69
2022/03/28 15:29:46;;;;;;;12.50;3.28;;;17.10;58.30;;;;;;5000061;28;20226;-68
2022/03/28 15:32:35;;;;;;;9.20;3.08;;;17.10;58.50;;;;;;4997896;28;20230;-68
2022/03/28 15:35:25;;;;;;;18.73;2.75;;;17.00;58.70;;;;;;5007464;28;20312;-67
2022/03/28 15:38:14;;;;;;;16.42;5.60;;;17.10;58.70;;;;;;5008870;28;20691;-68
2022/03/28 15:41:03;;;;;;;15.23;2.25;;;17.10;57.90;;;;;;5002505;28;20233;-67
2022/03/28 15:43:53;;;;;;;12.27;3.10;;;17.10;57.10;;;;;;5007602;28;20279;-68
2022/03/28 15:46:45;;;;;;;10.55;3.28;;;17.10;57.20;;;;;;5004407;28;20276;-70
2022/03/28 15:49:35;;;;;;;16.80;3.80;;;17.10;57.60;;;;;;4985582;28;20646;-68
2022/03/28 15:52:25;;;;;;;14.90;3.22;;;17.10;57.90;;;;;;4984156;28;20233;-69
2022/03/28 15:55:14;;;;;;;8.48;2.80;;;17.00;58.00;;;;;;4986356;28;20227;-72
2022/03/28 15:58:03;;;;;;;16.48;3.00;;;17.00;58.30;;;;;;4986233;28;20590;-71
2022/03/28 16:00:52;;;;;;;11.73;2.95;;;16.90;58.30;;;;;;4988359;28;20630;-71
2022/03/28 16:03:42;;;;;;;11.02;2.60;;;16.90;58.50;;;;;;5001846;28;20329;-71
2022/03/28 16:06:32;;;;;;;11.30;2.58;;;16.90;58.50;;;;;;5004020;28;20256;-74
2022/03/28 16:09:23;;;;;;;17.63;3.15;;;16.80;58.60;;;;;;5005199;28;20338;-75
2022/03/28 16:12:12;;;;;;;8.77;2.75;;;16.80;58.60;;;;;;5006561;28;20719;-73
2022/03/28 16:15:01;;;;;;;14.40;3.60;;;16.80;58.60;;;;;;5014950;28;20249;-74
2022/03/28 16:17:50;;;;;;;14.88;2.75;;;16.70;58.90;;;;;;5001448;28;20226;-74
2022/03/28 16:20:39;;;;;;;12.35;2.35;;;16.70;58.40;;;;;;5008516;28;21771;-72
2022/03/28 16:23:28;;;;;;;7.80;2.60;;;16.70;58.40;;;;;;5006938;28;20238;-73
2022/03/28 16:26:18;;;;;;;10.35;2.67;;;16.60;58.60;;;;;;5003571;28;20229;-73
2022/03/28 16:29:08;;;;;;;12.50;2.83;;;16.60;58.60;;;;;;5019136;28;20961;-73
2022/03/28 16:31:57;;;;;;;17.58;2.95;;;16.60;58.60;;;;;;5011322;28;21127;-75
2022/03/28 16:34:49;;;;;;;11.55;2.63;;;16.50;58.90;;;;;;5005659;28;20218;-73
2022/03/28 16:37:39;;;;;;;11.48;2.63;;;16.50;58.80;;;;;;5005407;28;20225;-73
2022/03/28 16:40:28;;;;;;;10.95;2.53;;;16.50;58.80;;;;;;5007383;28;20288;-74
2022/03/28 16:43:18;;;;;;;7.72;2.53;;;16.50;59.00;;;;;;5007525;28;20330;-74
2022/03/28 16:46:10;;;;;;;8.05;2.80;;;16.40;59.00;;;;;;5014940;28;20369;-73
2022/03/28 16:49:00;;;;;;;11.20;3.05;;;16.40;59.00;;;;;;5003647;28;20296;-74
2022/03/28 16:51:50;;;;;;;12.10;2.95;;;16.30;59.20;;;;;;5004931;28;20825;-74
2022/03/28 16:54:39;;;;;;;14.05;2.30;;;16.30;59.40;;;;;;5005440;28;20210;-73
2022/03/28 16:57:29;;;;;;;8.73;2.50;;;16.30;59.20;;;;;;5003754;28;20678;-74
2022/03/28 17:00:20;;;;;;;8.20;2.40;;;16.20;59.30;;;;;;5002771;28;20226;-76
2022/03/28 17:03:09;;;;;;;9.52;2.40;;;16.20;59.50;;;;;;5005814;28;20291;-73
2022/03/28 17:05:58;;;;;;;5.95;2.33;;;16.10;59.70;;;;;;5004064;28;20229;-73
2022/03/28 17:08:47;;;;;;;10.95;2.70;;;16.10;59.80;;;;;;5003164;28;20616;-73
2022/03/28 17:11:36;;;;;;;7.88;2.75;;;16.00;59.80;;;;;;5005990;28;21372;-73
2022/03/28 17:14:26;;;;;;;12.38;3.20;;;16.00;59.90;;;;;;5004983;28;20431;-75
2022/03/28 17:17:16;;;;;;;9.60;2.30;;;15.90;59.90;;;;;;5015766;28;20668;-75
2022/03/28 17:20:06;;;;;;;14.65;2.90;;;15.90;60.10;;;;;;5025211;28;20220;-73
2022/03/28 17:22:55;;;;;;;11.38;2.60;;;15.90;60.10;;;;;;5022483;28;20234;-74
2022/03/28 17:25:45;;;;;;;12.40;2.53;;;15.80;60.20;;;;;;5026440;28;20234;-73
2022/03/28 17:28:34;;;;;;;13.48;2.78;;;15.80;61.00;;;;;;5022813;28;20229;-72
2022/03/28 17:31:28;;;;;;;18.23;5.82;;;15.80;60.50;;;;;;5023779;28;20240;-73
2022/03/28 17:34:19;;;;;;;13.90;3.22;;;15.70;60.80;;;;;;5022509;28;20338;-72
2022/03/28 17:37:07;;;;;;;9.38;2.75;;;15.70;61.10;;;;;;5006858;28;20224;-73
2022/03/28 17:40:00;;;;;;;10.18;2.83;;;15.70;61.30;;;;;;5026069;28;20233;-67
2022/03/28 17:42:58;;;;;;;9.23;2.67;;;15.60;61.50;;;;;;5007772;28;20267;-74
2022/03/28 17:45:47;;;;;;;7.35;2.67;;;15.60;61.90;;;;;;5016816;28;20251;-68
2022/03/28 17:48:36;;;;;;;10.52;4.97;;;15.60;62.70;;;;;;5008366;28;20592;-68
2022/03/28 17:51:28;;;;;;;9.55;2.95;;;15.50;62.40;;;;;;5006573;28;20593;-69
2022/03/28 17:54:17;;;;;;;8.07;3.17;;;15.50;62.90;;;;;;5021619;28;20217;-70
2022/03/28 17:57:06;;;;;;;9.23;2.92;;;15.50;63.20;;;;;;5009932;28;20237;-69
2022/03/28 17:59:55;;;;;;;15.07;3.28;;;15.50;63.50;;;;;;5013164;28;20232;-68
2022/03/28 18:02:45;;;;;;;10.55;3.38;;;15.40;63.80;;;;;;5021708;28;20221;-68
2022/03/28 18:05:34;;;;;;;18.70;3.17;;;15.40;64.30;;;;;;5010711;28;20236;-69
2022/03/28 18:08:26;;;;;;;8.63;3.30;;;15.40;64.70;;;;;;5012639;28;20224;-68
2022/03/28 18:11:15;;;;;;;7.53;3.20;;;15.30;65.10;;;;;;5025205;28;20344;-68
2022/03/28 18:14:05;;;;;;;10.90;3.78;;;15.30;65.60;;;;;;5013008;28;20221;-69
2022/03/28 18:16:53;;;;;;;10.80;3.97;;;15.20;66.00;;;;;;5024815;28;20232;-70
2022/03/28 18:19:44;;;;;;;8.75;3.60;;;15.20;66.50;;;;;;5027412;28;20222;-70
2022/03/28 18:22:33;;;;;;;9.18;3.72;;;15.20;67.00;;;;;;5028017;28;20291;-70
2022/03/28 18:25:25;;;;;;;9.45;3.92;;;15.20;67.50;;;;;;5014876;28;20312;-71
2022/03/28 18:28:18;;;;;;;10.90;4.45;;;15.10;67.90;;;;;;5010993;28;20600;-69
2022/03/28 18:31:06;;;;;;;15.20;4.20;;;15.10;68.50;;;;;;5025149;28;20216;-66
2022/03/28 18:33:55;;;;;;;9.55;4.13;;;15.00;68.90;;;;;;5011764;28;20232;-67
2022/03/28 18:36:44;;;;;;;13.35;4.90;;;15.00;69.50;;;;;;5029419;28;20224;-68
2022/03/28 18:39:33;;;;;;;12.00;4.40;;;15.00;70.20;;;;;;5027177;28;20226;-66
2022/03/28 18:42:27;;;;;;;12.75;4.15;;;14.90;70.40;;;;;;5025609;28;20247;-68
2022/03/28 18:45:16;;;;;;;11.75;4.95;;;14.90;71.00;;;;;;5008539;28;20251;-64
2022/03/28 18:48:06;;;;;;;13.88;4.32;;;14.90;71.50;;;;;;5024240;28;20245;-67
2022/03/28 18:50:55;;;;;;;11.95;4.57;;;14.80;71.70;;;;;;5024365;28;20229;-70
2022/03/28 18:53:46;;;;;;;13.38;4.70;;;14.80;72.30;;;;;;5025152;28;20225;-75
2022/03/28 18:56:36;;;;;;;10.27;4.75;;;14.80;72.70;;;;;;5027519;28;20571;-82
2022/03/28 18:59:26;;;;;;;13.15;4.72;;;14.80;73.00;;;;;;5017636;28;20237;-77
2022/03/28 19:02:15;;;;;;;13.73;5.80;;;14.80;73.20;;;;;;5023416;28;20366;-72
2022/03/28 19:05:05;;;;;;;11.07;4.85;;;14.70;73.70;;;;;;5011228;28;20225;-71
2022/03/28 19:07:57;;;;;;;11.85;4.63;;;14.70;74.10;;;;;;5022712;28;20248;-65
2022/03/28 19:10:46;;;;;;;14.65;4.80;;;14.60;74.50;;;;;;5022116;28;20247;-68
2022/03/28 19:13:35;;;;;;;13.38;4.55;;;14.60;74.90;;;;;;5021127;28;20600;-66
2022/03/28 19:16:25;;;;;;;14.35;4.72;;;14.60;75.10;;;;;;5024025;28;20227;-69
2022/03/28 19:19:14;;;;;;;10.32;4.60;;;14.60;75.60;;;;;;5025556;28;20225;-69
2022/03/28 19:22:04;;;;;;;11.70;4.85;;;14.50;76.10;;;;;;5011533;28;20226;-73
2022/03/28 19:24:53;;;;;;;11.75;4.32;;;14.50;76.40;;;;;;5022787;28;21366;-73
2022/03/28 19:27:42;;;;;;;17.10;6.15;;;14.50;76.50;;;;;;5011571;28;20217;-71
2022/03/28 19:30:32;;;;;;;12.77;5.20;;;14.40;77.10;;;;;;5021754;28;20722;-72
2022/03/28 19:33:28;;;;;;;12.80;5.35;;;14.40;77.40;;;;;;5026706;28;20778;-72
2022/03/28 19:36:19;;;;;;;13.38;4.50;;;14.40;77.60;;;;;;5023943;28;20306;-73
2022/03/28 19:39:09;;;;;;;13.65;5.07;;;14.40;78.00;;;;;;5014194;28;20560;-72
2022/03/28 19:41:58;;;;;;;12.68;4.82;;;14.20;78.10;;;;;;5013183;28;21669;-73
2022/03/28 19:44:47;;;;;;;18.23;5.22;;;14.30;78.70;;;;;;5025317;28;20527;-73
2022/03/28 19:47:36;;;;;;;16.95;5.18;;;14.20;79.10;;;;;;5023316;28;20727;-73
2022/03/28 19:50:26;;;;;;;11.00;5.38;;;14.20;79.40;;;;;;5027355;28;20235;-73
2022/03/28 19:53:16;;;;;;;17.98;5.38;;;14.10;79.80;;;;;;5025099;28;20248;-73
2022/03/28 19:56:07;;;;;;;9.65;4.90;;;14.20;80.20;;;;;;5011070;28;20228;-72
2022/03/28 19:58:55;;;;;;;15.32;4.93;;;14.10;80.70;;;;;;5025409;28;20255;-73
2022/03/28 20:01:44;;;;;;;15.52;5.53;;;14.00;81.30;;;;;;5028111;28;20217;-72
2022/03/28 20:04:34;;;;;;;11.55;5.68;;;14.00;81.70;;;;;;5026321;28;21030;-73
2022/03/28 20:07:28;;;;;;;14.50;5.55;;;14.00;81.90;;;;;;5029099;28;20251;-72
2022/03/28 20:10:17;;;;;;;13.32;5.50;;;14.00;82.20;;;;;;5025108;28;20217;-71
2022/03/28 20:13:06;;;;;;;15.63;6.18;;;14.00;82.20;;;;;;5012726;28;20217;-71
2022/03/28 20:15:55;;;;;;;13.60;5.63;;;14.00;82.80;;;;;;5012470;28;20221;-71
2022/03/28 20:18:44;;;;;;;15.88;5.93;;;13.90;83.20;;;;;;5022515;28;20734;-71
2022/03/28 20:21:37;;;;;;;12.63;5.35;;;14.00;83.60;;;;;;5009350;28;21356;-70
2022/03/28 20:24:28;;;;;;;13.95;5.63;;;14.00;83.80;;;;;;5011163;28;20225;-71
2022/03/28 20:27:17;;;;;;;15.20;5.88;;;14.00;84.30;;;;;;5013921;28;20297;-70
2022/03/28 20:30:07;;;;;;;13.27;6.18;;;14.00;84.40;;;;;;5027567;28;20228;-72
2022/03/28 20:32:56;;;;;;;13.85;5.88;;;13.90;84.80;;;;;;5023307;28;20256;-71
2022/03/28 20:35:45;;;;;;;11.55;5.35;;;13.90;85.20;;;;;;5016337;28;20233;-72